»·PEaware :: UPS1781 KBOI-KSEA

UPS1781 :: KBOI-KSEA

FLIGHT INFORMATION

Flight Status: Arrived
Operator:
United Parcel Service
More flights by this operator :: More flights under this callsign
Pilot: Will K. (13011)
Aircraft: BOEING 747-400 (WINGLETS)
(B744)
More flights by this aircraft type
Origin: KBOI Boise Air Terminal/Gowen
United States
Destination: KSEA Seattle-Tacoma Intl
United States
More flights between these airports :: More routes between these airports
Route: +BOI LICKS PREIS PDT CHINS3
File this flight plan on PilotEdge
Remarks:
Altitude:
(Current/Filed)
36,000ft
Speed:
(Current/Filed)
350kts
Departed: 09-Mar-18 01:59 PM
Arrived: 09-Mar-18 03:11 PM
Distance/Time
Traveled:
346nm/1:11
Distance/Time
To Go:
Arrived

Flight Plot

Page will automatically refresh every two minutes.

Flight plan parsing failed; only flown route is shown


Map Options




Map Legend


Flown Route
Filed Route
Departure Airport
Arrival Airport
Navaid (VOR, NDB)
Fix

Horizontal Profiles

Position Reports

Time Latitude Longitude Heading Altitude Ground
Speed
09-Mar-18 13:26 43.567155 -116.243158 351 2847ft 0kts
09-Mar-18 13:28 43.567155 -116.243158 351 2847ft 0kts
09-Mar-18 13:29 43.567155 -116.243158 351 2847ft 0kts
09-Mar-18 13:30 43.567155 -116.243158 351 2847ft 0kts
09-Mar-18 13:31 43.567155 -116.243158 351 2847ft 0kts
09-Mar-18 13:32 43.567155 -116.243158 351 2847ft 0kts
09-Mar-18 13:33 43.567155 -116.243158 351 2847ft 0kts
09-Mar-18 13:34 43.567155 -116.243158 351 2847ft 0kts
09-Mar-18 13:35 43.567155 -116.243158 351 2847ft 0kts
09-Mar-18 13:36 43.567155 -116.243158 351 2847ft 0kts
09-Mar-18 13:37 43.567155 -116.243158 351 2847ft 0kts
09-Mar-18 13:38 43.567155 -116.243158 351 2847ft 0kts
09-Mar-18 13:39 43.567155 -116.243158 351 2847ft 0kts
09-Mar-18 13:40 43.567155 -116.243158 351 2847ft 0kts
09-Mar-18 13:41 43.567155 -116.243158 351 2847ft 0kts
09-Mar-18 13:42 43.567155 -116.243158 351 2847ft 0kts
09-Mar-18 13:43 43.567155 -116.243158 351 2847ft 0kts
09-Mar-18 13:44 43.567155 -116.243158 351 2847ft 0kts
09-Mar-18 13:45 43.567155 -116.243158 351 2847ft 0kts
09-Mar-18 13:46 43.567155 -116.243158 351 2847ft 0kts
09-Mar-18 13:47 43.567155 -116.243158 351 2847ft 0kts
09-Mar-18 13:48 43.567155 -116.243158 351 2847ft 0kts
09-Mar-18 13:49 43.567155 -116.243158 351 2847ft 0kts
09-Mar-18 13:50 43.567155 -116.243158 351 2847ft 0kts
09-Mar-18 13:51 43.567155 -116.243158 351 2847ft 0kts
09-Mar-18 13:52 43.567155 -116.243158 351 2847ft 0kts
09-Mar-18 13:53 43.567155 -116.243158 351 2847ft 0kts
09-Mar-18 13:54 43.567155 -116.243158 351 2847ft 0kts
09-Mar-18 13:55 43.568561 -116.242080 4 2847ft 0kts
09-Mar-18 13:56 43.568568 -116.242079 4 2847ft 0kts
09-Mar-18 13:57 43.569089 -116.242016 7 2847ft 17kts
09-Mar-18 13:58 43.559542 -116.211805 114 3078ft 196kts
09-Mar-18 13:59 43.535491 -116.129870 111 5580ft 241kts
09-Mar-18 14:00 43.520196 -116.037767 81 8121ft 271kts
09-Mar-18 14:01 43.567563 -115.958477 20 10518ft 282kts
09-Mar-18 14:02 43.645088 -115.984142 310 11275ft 339kts
09-Mar-18 14:03 43.711872 -116.085949 307 14104ft 364kts
09-Mar-18 14:04 43.779911 -116.191310 306 17737ft 371kts
09-Mar-18 14:05 43.850384 -116.300826 305 20561ft 390kts
09-Mar-18 14:06 43.924129 -116.415178 304 23401ft 399kts
09-Mar-18 14:07 43.996393 -116.528309 303 26728ft 387kts
09-Mar-18 14:08 44.066950 -116.639515 304 29401ft 380kts
09-Mar-18 14:09 44.138202 -116.747282 308 31410ft 382kts
09-Mar-18 14:10 44.217028 -116.853164 309 32151ft 410kts
09-Mar-18 14:11 44.302077 -116.968940 310 32589ft 439kts
09-Mar-18 14:12 44.389332 -117.087733 310 34098ft 438kts
09-Mar-18 14:13 44.477170 -117.207406 310 35322ft 440kts
09-Mar-18 14:14 44.564744 -117.327818 310 35958ft 442kts
09-Mar-18 14:15 44.652672 -117.449355 311 35950ft 442kts
09-Mar-18 14:16 44.740095 -117.570755 311 35944ft 443kts
09-Mar-18 14:17 44.827520 -117.692710 311 35941ft 443kts
09-Mar-18 14:18 44.915136 -117.815486 311 35940ft 443kts
09-Mar-18 14:19 45.002340 -117.938244 311 35945ft 443kts
09-Mar-18 14:20 45.089520 -118.061534 312 35955ft 444kts
09-Mar-18 14:21 45.177075 -118.185905 312 35958ft 445kts
09-Mar-18 14:22 45.264196 -118.310243 312 35962ft 445kts
09-Mar-18 14:23 45.351494 -118.435414 312 35969ft 445kts
09-Mar-18 14:24 45.438408 -118.560615 312 35971ft 445kts
09-Mar-18 14:25 45.525333 -118.685707 312 35976ft 444kts
09-Mar-18 14:26 45.611953 -118.812037 312 35987ft 444kts
09-Mar-18 14:27 45.698042 -118.938232 311 35989ft 443kts
09-Mar-18 14:28 45.778132 -119.072780 308 35995ft 442kts
09-Mar-18 14:29 45.857187 -119.207744 309 36000ft 442kts
09-Mar-18 14:30 45.936398 -119.342505 309 36001ft 442kts
09-Mar-18 14:31 46.015310 -119.475905 309 35917ft 421kts
09-Mar-18 14:32 46.087722 -119.600452 309 35247ft 396kts
09-Mar-18 14:33 46.157047 -119.720537 309 34164ft 382kts
09-Mar-18 14:34 46.223963 -119.836353 309 32990ft 372kts
09-Mar-18 14:35 46.289102 -119.949914 310 31854ft 363kts
09-Mar-18 14:36 46.352876 -120.061581 310 30754ft 354kts
09-Mar-18 14:37 46.415873 -120.171051 311 29192ft 361kts
09-Mar-18 14:38 46.481410 -120.286877 310 27287ft 376kts
09-Mar-18 14:39 46.548188 -120.405411 310 25742ft 380kts
09-Mar-18 14:40 46.611443 -120.529591 305 24151ft 385kts
09-Mar-18 14:41 46.672776 -120.658090 305 24001ft 386kts
09-Mar-18 14:42 46.733637 -120.786760 305 24004ft 386kts
09-Mar-18 14:43 46.794347 -120.915647 305 24003ft 379kts
09-Mar-18 14:44 46.851089 -121.036452 305 22933ft 343kts
09-Mar-18 14:45 46.904122 -121.149224 305 21063ft 334kts
09-Mar-18 14:46 46.957165 -121.262142 304 18677ft 339kts
09-Mar-18 14:47 47.010476 -121.377404 303 16442ft 340kts
09-Mar-18 14:48 47.061932 -121.488926 303 16068ft 304kts
09-Mar-18 14:49 47.108951 -121.590319 303 16010ft 295kts
09-Mar-18 14:50 47.152374 -121.685156 303 14898ft 270kts
09-Mar-18 14:51 47.193777 -121.775855 303 13199ft 267kts
09-Mar-18 14:52 47.234647 -121.864706 303 12174ft 257kts
09-Mar-18 14:53 47.274652 -121.952703 303 12109ft 260kts
09-Mar-18 14:54 47.314735 -122.041499 303 12121ft 261kts
09-Mar-18 14:55 47.354838 -122.130451 303 12129ft 260kts
09-Mar-18 14:56 47.417299 -122.174081 354 12140ft 273kts
09-Mar-18 14:57 47.493996 -122.165835 358 11768ft 273kts
09-Mar-18 14:58 47.569753 -122.157616 358 10118ft 271kts
09-Mar-18 14:59 47.639826 -122.152360 358 9412ft 229kts
09-Mar-18 15:00 47.702903 -122.148382 358 7852ft 225kts
09-Mar-18 15:01 47.754669 -122.176869 288 6305ft 212kts
09-Mar-18 15:02 47.760283 -122.259315 266 5500ft 184kts
09-Mar-18 15:03 47.721724 -122.303170 206 4125ft 181kts
09-Mar-18 15:04 47.671450 -122.310050 180 4142ft 182kts
09-Mar-18 15:05 47.626129 -122.309626 180 3573ft 156kts
09-Mar-18 15:06 47.583235 -122.309963 180 2765ft 153kts
09-Mar-18 15:07 47.540300 -122.310337 180 1931ft 155kts
09-Mar-18 15:08 47.496865 -122.310638 180 1077ft 157kts
09-Mar-18 15:09 47.454275 -122.310927 182 447ft 126kts
09-Mar-18 15:10 47.439399 -122.308964 132 446ft 22kts
09-Mar-18 15:11 47.445430 -122.306355 1 446ft 35kts
09-Mar-18 15:12 47.450087 -122.305430 67 446ft 2kts

Navigation Log

Ident Type
Flight plan parsing failed, navigation log unavailable